Jamestown, ND

10:12 PM CST on January 24, 2015 (GMT -0600)
Leapaldt Addition | Change Station
CLOSE
Current Station
Personal Weather Station
Location: Jamestown, ND
Elevation: 1486 ft
Nearby Weather Stations

Elev 1486 ft 46.93 °N, 98.69 °W | Updated 1 minute ago

Light Snow
Light Snow Mist
26.1 °F
Feels Like 19 °F
N
6.3
Wind Variable Wind from NNW

Today
High -- | Low -- °F
--% Chance of Precip.
Yesterday
High -- | Low -- °F
Precip. -- in
8:08 AM 5:25 PM
Waxing Crescent, 28% visible
Pressure 29.85 in
Visibility 1.8 miles
Clouds Few 800 ft
Few 1500 ft
Overcast 2000 ft
Windchill 19 °F
Dew Point 26 °F
Humidity 99%
Rainfall 0.05 in
Snow Depth Not available.
UV 0 out of 12
Pollen .10 out of 12
Air Quality Not available.
Flu Activity Not available.
METAR KJMS 250356Z AUTO 36010KT 1 3/4SM -SN BR FEW008 FEW015 OVC020 M03/M04 A2979 RMK AO2 SLP106 P0001 T10281044

More Conditions Fewer Conditions

Pressure 29.85 in
Visibility 1.8 miles
Clouds Few 800 ft
Few 1500 ft
Overcast 2000 ft
Windchill 19 °F
Dew Point 26 °F
Humidity 99%
Rainfall 0.05 in
Snow Depth Not available.
UV 0 out of 12
Pollen .10 out of 12
Air Quality Not available.
Flu Activity Not available.
METAR KJMS 250356Z AUTO 36010KT 1 3/4SM -SN BR FEW008 FEW015 OVC020 M03/M04 A2979 RMK AO2 SLP106 P0001 T10281044

More Conditions Fewer Conditions

10-Day Weather Forecast

Almanac

Astronomy

Jan. 24, 2015 Rise Set
Actual Time
Civil Twilight
Nautical Twilight
Astronomical Twilight
Moon
Length of Visible Light
Length of Day
Tomorrow will be .
, % of the Moon is Illuminated

Today's Extremes

State Highs State Lows

Community

WunderPhotos

Upload Photos

1,789,838 photos uploaded!

WunderBlogs® & News

Nearby

Air Quality

  Air Quality AQ Index Pollutant
Not available.

Snow Depth

Station Depth Elevation

Earthquake Activity

City Distance Mag. Time & Date
Minimum magnitude displayed is 2.5.

Coastal Water Temperatures

Place Temperature

Nearby Weather Stations